createdAt,value
2018-12-15T00:00:52.869Z,78.74
2018-12-15T00:03:56.081Z,78.19
2018-12-15T00:06:59.415Z,79.00
2018-12-15T00:10:02.615Z,78.50
2018-12-15T00:13:05.820Z,78.12
2018-12-15T00:16:09.123Z,77.72
2018-12-15T00:19:12.333Z,78.28
2018-12-15T00:22:15.499Z,78.84
2018-12-15T00:25:18.708Z,78.64
2018-12-15T00:28:21.912Z,78.45
2018-12-15T00:31:25.106Z,77.93
2018-12-15T00:34:28.325Z,78.55
2018-12-15T00:37:31.589Z,77.90
2018-12-15T00:40:34.956Z,77.45
2018-12-15T00:43:38.187Z,78.59
2018-12-15T00:46:42.865Z,78.67
2018-12-15T00:49:46.532Z,78.30
2018-12-15T00:52:50.194Z,78.41
2018-12-15T00:55:53.461Z,78.68
2018-12-15T00:58:56.839Z,78.23
2018-12-15T01:02:00.195Z,78.46
2018-12-15T01:05:03.532Z,78.45
2018-12-15T01:08:07.718Z,79.75
2018-12-15T01:11:11.286Z,79.18
2018-12-15T01:14:14.552Z,79.05
2018-12-15T01:17:20.710Z,78.71
2018-12-15T01:20:24.174Z,79.53
2018-12-15T01:23:27.498Z,78.57
2018-12-15T01:26:30.675Z,79.67
2018-12-15T01:29:34.027Z,79.62
2018-12-15T01:32:37.333Z,79.51
2018-12-15T01:35:40.523Z,79.37
2018-12-15T01:38:43.756Z,79.17
2018-12-15T01:41:47.015Z,80.17
2018-12-15T01:44:50.245Z,79.54
2018-12-15T01:47:53.516Z,79.25
2018-12-15T01:50:56.772Z,79.20
2018-12-15T01:54:00.121Z,79.12
2018-12-15T01:57:03.436Z,78.71
2018-12-15T02:00:08.172Z,79.04
2018-12-15T02:03:11.353Z,78.93
2018-12-15T02:06:14.545Z,78.59
2018-12-15T02:09:17.726Z,78.19
2018-12-15T02:12:21.015Z,78.61
2018-12-15T02:15:24.315Z,78.14
2018-12-15T02:18:27.521Z,77.99
2018-12-15T02:21:30.727Z,78.92
2018-12-15T02:24:33.986Z,78.68
2018-12-15T02:27:37.225Z,77.87
2018-12-15T02:30:40.531Z,78.73
2018-12-15T02:33:43.801Z,78.05
2018-12-15T02:36:47.237Z,78.55
2018-12-15T02:39:50.531Z,78.72
2018-12-15T02:42:53.703Z,77.98
2018-12-15T02:45:56.993Z,78.25
2018-12-15T02:49:00.252Z,77.06
2018-12-15T02:52:03.586Z,77.48
2018-12-15T02:55:06.978Z,77.05
2018-12-15T02:58:10.412Z,77.05
2018-12-15T03:01:14.801Z,77.22
2018-12-15T03:04:18.111Z,77.19
2018-12-15T03:07:22.461Z,78.02
2018-12-15T03:10:25.677Z,77.72
2018-12-15T03:13:28.924Z,77.97
2018-12-15T03:16:32.312Z,77.52
2018-12-15T03:19:35.616Z,78.44
2018-12-15T03:22:38.835Z,77.44
2018-12-15T03:25:42.076Z,78.32
2018-12-15T03:28:45.391Z,77.39
2018-12-15T03:31:48.546Z,77.29
2018-12-15T03:34:51.715Z,77.84
2018-12-15T03:37:54.925Z,77.90
2018-12-15T03:40:58.505Z,77.93
2018-12-15T03:44:01.704Z,77.37
2018-12-15T03:47:04.939Z,76.94
2018-12-15T03:50:08.275Z,78.09
2018-12-15T03:53:12.728Z,77.17
2018-12-15T03:56:15.899Z,77.60
2018-12-15T03:59:20.481Z,76.85
2018-12-15T04:02:23.696Z,77.77
2018-12-15T04:05:26.995Z,77.41
2018-12-15T04:08:30.237Z,76.76
2018-12-15T04:11:33.450Z,76.48
2018-12-15T04:14:36.649Z,77.67
2018-12-15T04:17:39.957Z,77.69
2018-12-15T04:20:43.172Z,77.18
2018-12-15T04:23:48.029Z,77.74
2018-12-15T04:26:52.625Z,76.62
2018-12-15T04:29:55.913Z,77.78
2018-12-15T04:32:59.189Z,76.90
2018-12-15T04:36:14.542Z,77.26
2018-12-15T04:39:17.859Z,77.90
2018-12-15T04:42:21.285Z,77.91
2018-12-15T04:45:24.485Z,76.70
2018-12-15T04:48:27.723Z,77.20
2018-12-15T04:51:32.389Z,76.13
2018-12-15T04:54:36.013Z,76.25
2018-12-15T04:57:39.181Z,76.18
2018-12-15T05:00:42.526Z,75.99
2018-12-15T05:03:45.720Z,75.33
2018-12-15T05:06:49.009Z,75.02
2018-12-15T05:09:52.232Z,76.11
2018-12-15T05:12:55.409Z,75.70
2018-12-15T05:15:58.597Z,75.31
2018-12-15T05:19:01.760Z,74.82
2018-12-15T05:22:05.701Z,75.46
2018-12-15T05:25:09.046Z,74.56
2018-12-15T05:28:12.382Z,75.67
2018-12-15T05:31:15.940Z,74.48
2018-12-15T05:34:19.218Z,75.26
2018-12-15T05:37:22.390Z,74.91
2018-12-15T05:40:25.594Z,75.36
2018-12-15T05:43:28.834Z,74.36
2018-12-15T05:46:32.018Z,75.32
2018-12-15T05:49:36.626Z,75.73
2018-12-15T05:52:39.801Z,75.93
2018-12-15T05:55:43.012Z,75.24
2018-12-15T05:58:46.419Z,76.34
2018-12-15T06:01:49.614Z,75.84
2018-12-15T06:04:53.890Z,75.78
2018-12-15T06:07:57.145Z,75.49
2018-12-15T06:11:00.347Z,76.11
2018-12-15T06:14:04.235Z,75.89
2018-12-15T06:17:07.587Z,75.05
2018-12-15T06:20:10.773Z,76.18
2018-12-15T06:23:13.972Z,75.14
2018-12-15T06:26:17.145Z,75.09
2018-12-15T06:29:20.448Z,75.10
2018-12-15T06:32:23.621Z,75.05
2018-12-15T06:35:26.904Z,75.33
2018-12-15T06:38:30.295Z,74.79
2018-12-15T06:41:33.589Z,75.17
2018-12-15T06:44:36.794Z,74.73
2018-12-15T06:47:40.073Z,74.43
2018-12-15T06:50:43.278Z,74.20
2018-12-15T06:53:46.573Z,73.85
2018-12-15T06:56:49.827Z,74.51
2018-12-15T06:59:53.012Z,74.46
2018-12-15T07:02:56.246Z,73.50
2018-12-15T07:05:59.457Z,74.87
2018-12-15T07:09:02.649Z,73.85
2018-12-15T07:12:05.850Z,74.72
2018-12-15T07:15:09.225Z,74.34
2018-12-15T07:18:12.477Z,75.13
2018-12-15T07:21:15.635Z,73.97
2018-12-15T07:24:19.295Z,74.21
2018-12-15T07:27:22.498Z,74.19
2018-12-15T07:30:25.845Z,74.16
2018-12-15T07:33:29.035Z,74.05
2018-12-15T07:36:32.309Z,74.67
2018-12-15T07:39:35.487Z,73.91
2018-12-15T07:42:38.706Z,73.60
2018-12-15T07:45:41.892Z,73.87
2018-12-15T07:48:51.391Z,74.16
2018-12-15T07:51:51.557Z,73.90
2018-12-15T07:54:54.747Z,73.98
2018-12-15T07:57:57.944Z,73.79
2018-12-15T08:01:01.199Z,73.94
2018-12-15T08:04:04.567Z,74.02
2018-12-15T08:07:07.855Z,73.67
2018-12-15T08:10:11.202Z,74.53
2018-12-15T08:13:32.579Z,74.32
2018-12-15T08:16:35.844Z,74.42
2018-12-15T08:19:39.824Z,74.82
2018-12-15T08:22:43.189Z,73.84
2018-12-15T08:25:46.810Z,74.50
2018-12-15T08:28:50.128Z,74.14
2018-12-15T08:31:54.846Z,75.11
2018-12-15T08:34:58.022Z,74.48
2018-12-15T08:38:01.815Z,75.10
2018-12-15T08:41:05.123Z,74.87
2018-12-15T08:44:08.472Z,74.46
2018-12-15T08:47:11.718Z,74.56
2018-12-15T08:50:15.215Z,74.75
2018-12-15T08:53:18.608Z,73.75
2018-12-15T08:56:21.905Z,74.42
2018-12-15T08:59:25.088Z,73.76
2018-12-15T09:02:28.381Z,74.50
2018-12-15T09:05:31.574Z,74.09
2018-12-15T09:08:34.903Z,74.10
2018-12-15T09:11:38.468Z,74.30
2018-12-15T09:14:41.780Z,74.44
2018-12-15T09:17:46.693Z,74.46
2018-12-15T09:20:49.969Z,73.90
2018-12-15T09:23:53.362Z,72.94
2018-12-15T09:26:56.625Z,73.74
2018-12-15T09:29:59.839Z,73.25
2018-12-15T09:33:03.027Z,73.72
2018-12-15T09:36:06.410Z,73.14
2018-12-15T09:39:09.622Z,73.18
2018-12-15T09:42:12.898Z,72.60
2018-12-15T09:45:16.092Z,72.49
2018-12-15T09:48:19.276Z,72.10
2018-12-15T09:51:22.477Z,72.49
2018-12-15T09:54:25.716Z,72.07
2018-12-15T09:57:29.367Z,72.86
2018-12-15T10:00:32.569Z,72.59
2018-12-15T10:03:35.761Z,71.76
2018-12-15T10:06:38.922Z,71.40
2018-12-15T10:09:42.093Z,70.30
2018-12-15T10:12:45.324Z,70.86
2018-12-15T10:15:48.482Z,70.00
2018-12-15T10:18:52.064Z,69.68
2018-12-15T10:21:55.450Z,69.02
2018-12-15T10:24:59.790Z,69.54
2018-12-15T10:28:02.943Z,69.60
2018-12-15T10:31:11.761Z,70.37
2018-12-15T10:34:15.012Z,69.67
2018-12-15T10:37:18.311Z,69.27
2018-12-15T10:40:22.143Z,68.27
2018-12-15T10:43:25.313Z,69.17
2018-12-15T10:46:28.554Z,68.33
2018-12-15T10:49:31.864Z,68.32
2018-12-15T10:52:35.111Z,67.56
2018-12-15T10:55:38.346Z,67.72
2018-12-15T10:58:41.530Z,68.34
2018-12-15T11:01:44.684Z,67.70
2018-12-15T11:04:48.824Z,67.25
2018-12-15T11:07:52.456Z,67.54
2018-12-15T11:10:55.692Z,67.25
2018-12-15T11:13:58.868Z,67.55
2018-12-15T11:17:02.377Z,67.08
2018-12-15T11:20:06.009Z,66.58
2018-12-15T11:23:09.267Z,66.08
2018-12-15T11:26:12.448Z,66.33
2018-12-15T11:29:15.689Z,65.85
2018-12-15T11:32:18.945Z,66.16
2018-12-15T11:35:22.206Z,66.05
2018-12-15T11:38:25.491Z,66.32
2018-12-15T11:41:28.657Z,66.80
2018-12-15T11:44:31.845Z,65.86
2018-12-15T11:47:36.657Z,65.90
2018-12-15T11:50:39.845Z,65.93
2018-12-15T11:53:43.083Z,66.54
2018-12-15T11:56:46.349Z,66.79
2018-12-15T11:59:49.558Z,66.91
2018-12-15T12:02:52.820Z,66.89
2018-12-15T12:05:55.986Z,65.96
2018-12-15T12:08:59.248Z,66.92
2018-12-15T12:12:02.616Z,66.89
2018-12-15T12:15:06.497Z,66.21
2018-12-15T12:18:09.668Z,66.74
2018-12-15T12:21:12.928Z,66.49
2018-12-15T12:24:16.114Z,67.02
2018-12-15T12:27:19.314Z,67.54
2018-12-15T12:30:22.569Z,67.69
2018-12-15T12:33:25.836Z,67.33
2018-12-15T12:36:29.043Z,67.82
2018-12-15T12:39:32.231Z,67.63
2018-12-15T12:42:35.934Z,68.56
2018-12-15T12:45:39.138Z,68.43
2018-12-15T12:48:42.315Z,68.26
2018-12-15T12:51:45.553Z,68.57
2018-12-15T12:54:48.734Z,68.84
2018-12-15T12:57:51.898Z,69.62
2018-12-15T13:00:55.048Z,68.95
2018-12-15T13:03:58.312Z,70.06
2018-12-15T13:07:01.486Z,69.88
2018-12-15T13:10:04.905Z,70.68
2018-12-15T13:13:08.088Z,70.90
2018-12-15T13:16:11.343Z,70.07
2018-12-15T13:19:15.842Z,71.35
2018-12-15T13:22:19.162Z,70.62
2018-12-15T13:25:22.428Z,71.21
2018-12-15T13:28:25.722Z,70.77
2018-12-15T13:31:29.089Z,72.15
2018-12-15T13:34:32.386Z,72.21
2018-12-15T13:37:35.743Z,72.87
2018-12-15T13:40:38.930Z,72.82
2018-12-15T13:43:42.084Z,72.65
2018-12-15T13:46:45.299Z,73.60
2018-12-15T13:49:48.566Z,72.05
2018-12-15T13:52:51.887Z,73.50
2018-12-15T13:55:55.154Z,73.17
2018-12-15T13:58:58.344Z,73.06
2018-12-15T14:02:01.529Z,73.60
2018-12-15T14:05:04.849Z,72.88
2018-12-15T14:08:08.025Z,72.07
2018-12-15T14:11:11.214Z,72.31
2018-12-15T14:14:15.580Z,72.13
2018-12-15T14:17:18.821Z,70.81
2018-12-15T14:20:22.050Z,70.75
2018-12-15T14:23:25.497Z,70.89
2018-12-15T14:26:28.831Z,70.95
2018-12-15T14:29:33.852Z,71.42
2018-12-15T14:32:37.162Z,72.41
2018-12-15T14:35:40.352Z,71.90
2018-12-15T14:38:44.670Z,71.84
2018-12-15T14:41:47.817Z,72.39
2018-12-15T14:44:51.061Z,73.17
2018-12-15T14:47:54.719Z,73.19
2018-12-15T14:50:57.912Z,71.85
2018-12-15T14:54:01.168Z,72.78
2018-12-15T14:57:04.495Z,73.35
2018-12-15T15:00:09.482Z,72.80
2018-12-15T15:03:14.149Z,73.42
2018-12-15T15:06:17.362Z,73.68
2018-12-15T15:09:20.670Z,73.10
2018-12-15T15:12:24.557Z,73.64
2018-12-15T15:15:27.729Z,73.24
2018-12-15T15:18:30.886Z,74.39
2018-12-15T15:21:34.063Z,73.69
2018-12-15T15:24:37.327Z,73.61
2018-12-15T15:27:40.719Z,73.23
2018-12-15T15:30:43.911Z,73.12
2018-12-15T15:33:47.135Z,73.47
2018-12-15T15:36:50.401Z,73.27
2018-12-15T15:39:53.674Z,74.16
2018-12-15T15:42:57.711Z,73.95
2018-12-15T15:46:00.881Z,74.42
2018-12-15T15:49:04.414Z,73.85
2018-12-15T15:52:07.578Z,73.56
2018-12-15T15:55:10.901Z,73.67
2018-12-15T15:58:14.094Z,74.73
2018-12-15T16:01:17.330Z,74.28
2018-12-15T16:04:21.047Z,74.80
2018-12-15T16:07:24.269Z,74.02
2018-12-15T16:10:27.431Z,74.77
2018-12-15T16:13:30.694Z,73.60
2018-12-15T16:16:36.024Z,72.76
2018-12-15T16:19:39.432Z,74.33
2018-12-15T16:22:42.688Z,74.04
2018-12-15T16:25:45.888Z,72.79
2018-12-15T16:28:49.146Z,73.83
2018-12-15T16:31:52.322Z,72.50
2018-12-15T16:34:55.595Z,73.00
2018-12-15T16:37:58.764Z,72.68
2018-12-15T16:41:01.972Z,72.49
2018-12-15T16:44:05.338Z,72.53
2018-12-15T16:47:08.647Z,72.93
2018-12-15T16:50:14.769Z,72.89
2018-12-15T16:53:17.946Z,73.79
2018-12-15T16:56:21.263Z,73.40
2018-12-15T16:59:24.437Z,73.05
2018-12-15T17:02:27.607Z,71.30
2018-12-15T17:05:30.856Z,71.92
2018-12-15T17:08:35.239Z,71.87
2018-12-15T17:11:38.654Z,71.78
2018-12-15T17:14:41.801Z,70.62
2018-12-15T17:17:45.022Z,71.71
2018-12-15T17:20:48.509Z,71.27
2018-12-15T17:23:51.683Z,71.56
2018-12-15T17:26:54.857Z,72.42
2018-12-15T17:29:58.051Z,71.50
2018-12-15T17:33:01.330Z,72.35
2018-12-15T17:36:04.595Z,71.86
2018-12-15T17:39:08.702Z,71.64
2018-12-15T17:42:11.893Z,72.19
2018-12-15T17:45:15.127Z,72.54
2018-12-15T17:48:18.327Z,71.75
2018-12-15T17:51:21.495Z,71.90
2018-12-15T17:54:24.816Z,72.39
2018-12-15T17:57:27.991Z,70.81
2018-12-15T18:00:31.334Z,71.20
2018-12-15T18:03:34.555Z,72.47
2018-12-15T18:06:37.842Z,71.47
2018-12-15T18:09:41.192Z,71.64
2018-12-15T18:12:44.479Z,72.49
2018-12-15T18:15:47.785Z,72.26
2018-12-15T18:18:51.253Z,71.28
2018-12-15T18:21:54.479Z,71.45
2018-12-15T18:24:57.682Z,70.46
2018-12-15T18:28:00.875Z,71.38
2018-12-15T18:31:04.106Z,70.87
2018-12-15T18:34:07.377Z,70.93
2018-12-15T18:37:10.628Z,70.47
2018-12-15T18:40:13.853Z,70.63
2018-12-15T18:43:17.021Z,70.46
2018-12-15T18:46:20.184Z,70.20
2018-12-15T18:49:23.364Z,70.86
2018-12-15T18:52:26.528Z,71.27
2018-12-15T18:55:29.820Z,71.87
2018-12-15T18:58:33.215Z,72.08
2018-12-15T19:01:36.394Z,72.48
2018-12-15T19:04:39.570Z,71.52
2018-12-15T19:07:42.744Z,71.76
2018-12-15T19:10:46.089Z,72.62
2018-12-15T19:13:49.515Z,72.37
2018-12-15T19:16:52.853Z,73.24
2018-12-15T19:19:56.040Z,72.70
2018-12-15T19:22:59.242Z,73.41
2018-12-15T19:26:02.468Z,74.39
2018-12-15T19:29:05.657Z,74.03
2018-12-15T19:32:08.986Z,74.96
2018-12-15T19:35:12.243Z,75.46
2018-12-15T19:38:15.462Z,74.72
2018-12-15T19:41:18.654Z,75.38
2018-12-15T19:44:21.926Z,75.23
2018-12-15T19:47:25.214Z,74.86
2018-12-15T19:50:29.422Z,76.23
2018-12-15T19:53:32.650Z,75.39
2018-12-15T19:56:37.110Z,74.87
2018-12-15T19:59:40.299Z,75.51
2018-12-15T20:02:43.695Z,76.76
2018-12-15T20:05:47.106Z,76.18
2018-12-15T20:08:50.915Z,76.86
2018-12-15T20:11:54.209Z,76.68
2018-12-15T20:14:57.551Z,76.73
2018-12-15T20:18:00.818Z,76.40
2018-12-15T20:21:03.997Z,76.37
2018-12-15T20:24:07.224Z,76.90
2018-12-15T20:27:10.475Z,76.44
2018-12-15T20:30:13.824Z,77.42
2018-12-15T20:33:17.136Z,77.06
2018-12-15T20:36:22.167Z,77.06
2018-12-15T20:39:25.456Z,77.46
2018-12-15T20:42:28.728Z,76.72
2018-12-15T20:45:31.963Z,77.33
2018-12-15T20:48:35.238Z,77.02
2018-12-15T20:51:42.659Z,77.83
2018-12-15T20:54:43.746Z,77.75
2018-12-15T20:57:47.040Z,77.40
2018-12-15T21:00:50.264Z,77.13
2018-12-15T21:03:53.724Z,77.63
2018-12-15T21:06:57.122Z,77.18
2018-12-15T21:10:00.848Z,77.25
2018-12-15T21:13:04.210Z,76.87
2018-12-15T21:16:07.672Z,76.15
2018-12-15T21:19:10.876Z,76.96
2018-12-15T21:22:14.175Z,76.88
2018-12-15T21:25:17.406Z,75.79
2018-12-15T21:28:20.724Z,76.22
2018-12-15T21:31:24.031Z,75.55
2018-12-15T21:34:27.216Z,76.29
2018-12-15T21:37:31.570Z,76.67
2018-12-15T21:40:34.829Z,75.72
2018-12-15T21:43:38.013Z,75.72
2018-12-15T21:46:41.200Z,76.32
2018-12-15T21:49:44.378Z,76.18
2018-12-15T21:52:47.647Z,75.74
2018-12-15T21:55:51.011Z,76.53
2018-12-15T21:58:54.318Z,76.43
2018-12-15T22:01:57.504Z,75.27
2018-12-15T22:05:00.819Z,76.83
2018-12-15T22:08:04.095Z,76.01
2018-12-15T22:11:07.313Z,76.14
2018-12-15T22:14:11.480Z,76.33
2018-12-15T22:17:14.772Z,76.61
2018-12-15T22:20:18.629Z,76.78
2018-12-15T22:23:22.023Z,75.65
2018-12-15T22:26:25.193Z,75.26
2018-12-15T22:29:28.769Z,76.16
2018-12-15T22:32:31.961Z,76.91
2018-12-15T22:35:35.239Z,77.44
2018-12-15T22:38:38.485Z,76.33
2018-12-15T22:41:42.468Z,75.94
2018-12-15T22:44:45.660Z,76.08
2018-12-15T22:47:48.898Z,75.60
2018-12-15T22:50:52.137Z,76.37
2018-12-15T22:53:55.359Z,76.12
2018-12-15T22:56:58.581Z,77.19
2018-12-15T23:00:01.936Z,77.41
2018-12-15T23:03:05.321Z,76.87
2018-12-15T23:06:08.703Z,77.58
2018-12-15T23:09:11.911Z,78.02
2018-12-15T23:12:15.158Z,78.05
2018-12-15T23:15:18.371Z,78.00
2018-12-15T23:18:21.582Z,78.21
2018-12-15T23:21:24.948Z,78.60
2018-12-15T23:24:28.146Z,78.30
2018-12-15T23:27:31.542Z,78.11
2018-12-15T23:30:34.836Z,78.31
2018-12-15T23:33:38.305Z,78.47
2018-12-15T23:36:41.580Z,78.97
2018-12-15T23:39:44.756Z,78.40
2018-12-15T23:42:48.041Z,79.59
2018-12-15T23:45:51.209Z,79.98
2018-12-15T23:48:54.411Z,80.05
2018-12-15T23:51:58.451Z,79.69
2018-12-15T23:55:01.755Z,79.34
2018-12-15T23:58:04.941Z,80.06
